Time;durP1;ratioP1;P1;durP2;ratioP2;P2;SDS_P1;SDS_P2;PMS_P1;PMS_P2;Temp;Humidity;BMP_temperature;BMP_pressure;BME280_temperature;BME280_humidity;BME280_pressure;Samples;Min_cycle;Max_cycle;Signal;HPM_P1;HPM_P2
2022/03/26 00:01:11;;;;;;;7.43;6.70;;;9.50;68.80;;;;;;624181;226;26589;-62
2022/03/26 00:03:38;;;;;;;7.45;6.75;;;9.60;68.90;;;;;;624230;230;26912;-62
2022/03/26 00:06:06;;;;;;;8.70;7.80;;;9.60;68.80;;;;;;624215;230;26581;-60
2022/03/26 00:08:32;;;;;;;8.55;7.55;;;9.50;68.90;;;;;;624146;230;26902;-61
2022/03/26 00:11:00;;;;;;;8.35;7.28;;;9.50;69.30;;;;;;624228;229;26577;-61
2022/03/26 00:13:28;;;;;;;7.80;6.97;;;9.50;69.30;;;;;;624180;230;26581;-60
2022/03/26 00:15:55;;;;;;;7.68;6.90;;;9.50;69.50;;;;;;624273;230;26836;-60
2022/03/26 00:18:23;;;;;;;8.13;7.32;;;9.40;69.90;;;;;;624286;230;26530;-60
2022/03/26 00:20:52;;;;;;;8.40;7.30;;;9.50;69.70;;;;;;624231;230;26518;-60
2022/03/26 00:23:19;;;;;;;8.77;7.12;;;9.50;69.70;;;;;;624470;228;26573;-60
2022/03/26 00:25:46;;;;;;;8.13;7.32;;;9.50;69.70;;;;;;625917;229;26823;-61
2022/03/26 00:28:14;;;;;;;7.72;7.03;;;9.50;69.80;;;;;;625450;230;26603;-61
2022/03/26 00:30:42;;;;;;;7.72;7.03;;;9.50;69.70;;;;;;625225;229;26760;-60
2022/03/26 00:33:09;;;;;;;8.10;7.03;;;9.50;69.60;;;;;;625057;229;26565;-61
2022/03/26 00:35:37;;;;;;;7.62;7.00;;;9.50;69.70;;;;;;624817;230;26590;-61
2022/03/26 00:38:04;;;;;;;7.85;7.05;;;9.50;70.40;;;;;;624859;230;26549;-61
2022/03/26 00:40:32;;;;;;;7.57;6.87;;;9.50;69.70;;;;;;624911;230;26532;-61
2022/03/26 00:42:59;;;;;;;8.07;7.25;;;9.50;70.10;;;;;;624624;230;26600;-61
2022/03/26 00:45:29;;;;;;;8.45;6.93;;;9.30;70.60;;;;;;624478;229;26705;-61
2022/03/26 00:47:55;;;;;;;8.05;7.25;;;9.20;71.30;;;;;;624483;230;26600;-61
2022/03/26 00:50:22;;;;;;;7.82;7.00;;;9.20;70.80;;;;;;624534;230;26842;-61
2022/03/26 00:52:49;;;;;;;8.48;7.45;;;9.20;71.20;;;;;;624866;227;26600;-61
2022/03/26 00:55:17;;;;;;;8.00;7.03;;;9.10;71.40;;;;;;624853;230;26836;-61
2022/03/26 00:57:44;;;;;;;8.35;7.10;;;9.10;71.70;;;;;;624919;230;26586;-61
2022/03/26 01:00:13;;;;;;;8.38;7.55;;;9.10;71.80;;;;;;624739;230;26538;-62
2022/03/26 01:02:40;;;;;;;9.07;7.65;;;9.10;71.80;;;;;;624571;230;26774;-62
2022/03/26 01:05:08;;;;;;;9.27;7.80;;;9.10;71.90;;;;;;624598;230;26557;-61
2022/03/26 01:07:35;;;;;;;9.00;7.53;;;9.10;72.10;;;;;;624606;230;26537;-61
2022/03/26 01:10:02;;;;;;;8.50;7.60;;;9.10;72.20;;;;;;624601;230;26546;-61
2022/03/26 01:12:30;;;;;;;8.73;7.22;;;9.00;72.30;;;;;;624300;230;26541;-61
2022/03/26 01:14:58;;;;;;;8.30;7.28;;;9.00;72.70;;;;;;624176;230;26589;-62
2022/03/26 01:17:25;;;;;;;8.52;7.65;;;9.00;72.70;;;;;;624240;230;26827;-61
2022/03/26 01:19:54;;;;;;;7.95;7.20;;;8.90;72.90;;;;;;624197;230;26567;-61
2022/03/26 01:22:21;;;;;;;9.98;7.47;;;8.80;73.70;;;;;;624137;230;26795;-62
2022/03/26 01:24:47;;;;;;;8.43;7.62;;;8.80;73.30;;;;;;624155;230;26817;-62
2022/03/26 01:27:15;;;;;;;10.25;8.38;;;8.80;73.80;;;;;;624268;230;26565;-61
2022/03/26 01:29:43;;;;;;;8.45;7.53;;;8.70;73.90;;;;;;624263;230;26570;-61
2022/03/26 01:32:11;;;;;;;8.82;7.43;;;8.70;74.40;;;;;;624189;230;26529;-60
2022/03/26 01:34:39;;;;;;;12.65;9.23;;;8.70;74.10;;;;;;624211;230;26965;-61
2022/03/26 01:37:06;;;;;;;12.77;9.02;;;8.70;74.30;;;;;;625986;228;26613;-62
2022/03/26 01:39:33;;;;;;;10.60;7.93;;;8.60;74.40;;;;;;625378;230;26845;-61
2022/03/26 01:42:01;;;;;;;10.27;7.45;;;8.60;74.70;;;;;;625059;229;26582;-61
2022/03/26 01:44:29;;;;;;;10.95;7.53;;;8.50;74.70;;;;;;624906;230;26553;-67
2022/03/26 01:46:57;;;;;;;14.32;8.50;;;8.50;74.90;;;;;;624813;230;26554;-67
2022/03/26 01:49:25;;;;;;;12.25;8.25;;;8.40;74.90;;;;;;624811;230;26565;-67
2022/03/26 01:51:52;;;;;;;11.05;8.07;;;8.40;74.90;;;;;;624833;230;26577;-67
2022/03/26 01:54:19;;;;;;;11.52;7.65;;;8.40;75.20;;;;;;624618;230;26616;-67
2022/03/26 01:56:46;;;;;;;11.52;7.22;;;8.40;75.30;;;;;;624511;230;27296;-67
2022/03/26 01:59:14;;;;;;;9.10;6.75;;;8.40;75.10;;;;;;624511;230;26609;-67
2022/03/26 02:01:42;;;;;;;9.52;7.20;;;8.40;75.10;;;;;;624514;230;26823;-66
2022/03/26 02:04:08;;;;;;;9.07;6.75;;;8.30;75.20;;;;;;624462;230;26635;-67
2022/03/26 02:06:35;;;;;;;16.77;7.12;;;8.30;75.30;;;;;;624431;230;26625;-67
2022/03/26 02:09:04;;;;;;;8.93;6.65;;;8.30;75.50;;;;;;624431;230;26617;-67
2022/03/26 02:11:32;;;;;;;7.28;6.30;;;8.30;75.50;;;;;;624713;230;26582;-67
2022/03/26 02:13:59;;;;;;;8.88;7.05;;;8.30;75.70;;;;;;626575;226;25849;-67
2022/03/26 02:16:26;;;;;;;7.32;6.53;;;8.30;75.60;;;;;;637436;225;26611;-67
2022/03/26 02:18:54;;;;;;;10.18;6.53;;;8.20;75.70;;;;;;649862;221;26962;-67
2022/03/26 02:21:22;;;;;;;10.45;6.68;;;8.20;76.00;;;;;;637551;225;26750;-67
2022/03/26 02:23:49;;;;;;;10.00;6.28;;;8.20;76.00;;;;;;649777;221;26791;-67
2022/03/26 02:26:16;;;;;;;10.20;6.90;;;8.20;76.30;;;;;;637777;225;26532;-67
2022/03/26 02:28:44;;;;;;;9.02;6.62;;;8.20;76.00;;;;;;649808;221;26925;-66
2022/03/26 02:31:11;;;;;;;7.53;5.85;;;8.20;76.00;;;;;;637766;225;26525;-67
2022/03/26 02:33:38;;;;;;;6.47;5.60;;;8.20;75.90;;;;;;649813;221;26555;-67
2022/03/26 02:36:06;;;;;;;7.50;6.20;;;8.10;76.00;;;;;;637652;225;26540;-67
2022/03/26 02:38:34;;;;;;;12.00;6.65;;;8.10;76.20;;;;;;649738;221;26570;-67
2022/03/26 02:41:01;;;;;;;7.12;5.78;;;8.10;76.20;;;;;;637724;225;26560;-67
2022/03/26 02:43:29;;;;;;;7.65;6.45;;;8.10;76.40;;;;;;649781;221;26528;-67
2022/03/26 02:45:57;;;;;;;7.60;6.28;;;8.10;76.30;;;;;;637656;225;26570;-67
2022/03/26 02:48:24;;;;;;;6.85;5.78;;;8.10;76.30;;;;;;651486;219;26607;-67
2022/03/26 02:50:51;;;;;;;6.53;5.65;;;8.10;76.50;;;;;;627146;229;26576;-66
2022/03/26 02:53:18;;;;;;;6.32;5.65;;;8.10;76.80;;;;;;650804;221;26749;-66
2022/03/26 02:55:47;;;;;;;6.53;5.57;;;8.10;76.80;;;;;;638542;225;26561;-67
2022/03/26 02:58:13;;;;;;;6.40;5.43;;;8.10;77.00;;;;;;650436;221;26533;-67
2022/03/26 03:00:41;;;;;;;6.32;5.72;;;8.10;77.30;;;;;;638352;225;26533;-67
2022/03/26 03:03:09;;;;;;;5.68;5.15;;;8.10;77.40;;;;;;650495;221;26565;-67
2022/03/26 03:05:37;;;;;;;6.18;5.62;;;8.00;77.20;;;;;;626194;229;26863;-67
2022/03/26 03:08:04;;;;;;;6.28;5.68;;;8.00;77.40;;;;;;650186;221;26761;-67
2022/03/26 03:10:31;;;;;;;5.62;5.12;;;8.00;77.60;;;;;;638028;225;26708;-67
2022/03/26 03:12:59;;;;;;;7.78;6.37;;;8.00;77.80;;;;;;650105;221;26515;-67
2022/03/26 03:15:25;;;;;;;5.72;5.12;;;8.00;78.10;;;;;;638005;225;27130;-66
2022/03/26 03:17:53;;;;;;;6.65;5.47;;;8.00;78.60;;;;;;650163;221;26487;-67
2022/03/26 03:20:21;;;;;;;5.57;5.12;;;7.90;78.70;;;;;;638027;225;26466;-67
2022/03/26 03:22:49;;;;;;;5.65;5.15;;;7.90;78.70;;;;;;650048;221;26597;-67
2022/03/26 03:25:16;;;;;;;6.25;5.07;;;7.80;79.10;;;;;;637695;225;26564;-67
2022/03/26 03:27:43;;;;;;;5.32;4.90;;;7.80;79.40;;;;;;649807;221;26784;-66
2022/03/26 03:30:11;;;;;;;5.60;5.05;;;7.90;79.60;;;;;;625922;230;26605;-67
2022/03/26 03:32:38;;;;;;;6.32;5.35;;;7.80;80.00;;;;;;649531;221;26551;-67
2022/03/26 03:35:06;;;;;;;6.00;5.40;;;7.80;80.30;;;;;;637660;225;26509;-67
2022/03/26 03:37:35;;;;;;;5.40;4.90;;;7.80;80.50;;;;;;649714;221;26482;-67
2022/03/26 03:40:03;;;;;;;6.90;5.32;;;7.70;80.40;;;;;;625729;230;26920;-67
2022/03/26 03:42:30;;;;;;;11.18;5.75;;;7.70;80.80;;;;;;649627;221;26738;-67
2022/03/26 03:44:57;;;;;;;6.90;5.03;;;7.70;81.30;;;;;;625850;230;26640;-67
2022/03/26 03:47:24;;;;;;;5.78;5.22;;;7.70;81.50;;;;;;649813;221;26525;-67
2022/03/26 03:49:52;;;;;;;5.35;4.85;;;7.70;82.20;;;;;;637742;225;26496;-67
2022/03/26 03:52:20;;;;;;;5.78;5.28;;;7.60;82.50;;;;;;649821;221;26567;-67
2022/03/26 03:54:48;;;;;;;5.35;4.90;;;7.50;83.30;;;;;;637704;225;26763;-67
2022/03/26 03:57:16;;;;;;;6.10;5.18;;;7.60;83.10;;;;;;649786;221;26784;-67
2022/03/26 03:59:43;;;;;;;4.93;4.53;;;7.50;83.00;;;;;;639217;223;26712;-67
2022/03/26 04:02:11;;;;;;;7.50;6.72;;;7.40;83.70;;;;;;651139;221;26521;-67
2022/03/26 04:04:41;;;;;;;6.65;5.62;;;7.40;83.90;;;;;;638538;225;26464;-67
2022/03/26 04:07:08;;;;;;;6.45;5.47;;;7.40;83.90;;;;;;650679;221;27276;-67
2022/03/26 04:09:35;;;;;;;5.03;4.62;;;7.30;84.40;;;;;;638299;225;26507;-67
2022/03/26 04:12:03;;;;;;;5.32;4.82;;;7.40;84.80;;;;;;650409;221;26547;-67
2022/03/26 04:14:32;;;;;;;5.20;4.75;;;7.30;85.20;;;;;;626394;229;26555;-66
2022/03/26 04:16:59;;;;;;;4.97;4.57;;;7.30;85.20;;;;;;650268;221;26807;-66
2022/03/26 04:19:27;;;;;;;5.07;4.55;;;7.30;85.10;;;;;;626196;230;26996;-67
2022/03/26 04:21:56;;;;;;;5.35;4.60;;;7.20;85.70;;;;;;650147;221;26476;-67
2022/03/26 04:24:23;;;;;;;5.07;4.68;;;7.20;86.10;;;;;;637976;225;26456;-66
2022/03/26 04:26:50;;;;;;;7.43;6.72;;;7.20;86.10;;;;;;650131;221;26733;-67
2022/03/26 04:29:17;;;;;;;5.03;4.55;;;7.10;86.80;;;;;;638029;225;26460;-67
2022/03/26 04:31:45;;;;;;;5.68;5.18;;;7.10;86.60;;;;;;650177;221;27142;-67
2022/03/26 04:34:12;;;;;;;5.50;5.00;;;7.10;86.90;;;;;;626122;230;26554;-67
2022/03/26 04:36:39;;;;;;;9.05;4.68;;;7.10;87.10;;;;;;649803;221;26549;-67
2022/03/26 04:39:07;;;;;;;5.32;4.70;;;7.10;87.40;;;;;;637702;225;26546;-67
2022/03/26 04:41:35;;;;;;;4.93;4.53;;;7.10;87.90;;;;;;649818;221;26563;-66
2022/03/26 04:44:02;;;;;;;5.35;4.87;;;7.00;87.40;;;;;;625850;230;26943;-67
2022/03/26 04:46:29;;;;;;;5.00;4.60;;;7.10;87.70;;;;;;649641;221;26562;-67
2022/03/26 04:48:56;;;;;;;5.32;4.80;;;7.00;87.80;;;;;;637733;225;26808;-67
2022/03/26 04:51:24;;;;;;;5.20;4.60;;;7.00;88.40;;;;;;649806;221;26568;-65
2022/03/26 04:53:52;;;;;;;10.27;5.05;;;7.00;88.50;;;;;;625859;230;26576;-66
2022/03/26 04:56:20;;;;;;;4.70;4.28;;;7.00;88.50;;;;;;649738;221;26604;-66
2022/03/26 04:58:48;;;;;;;6.20;4.93;;;7.00;88.90;;;;;;637712;225;26741;-66
2022/03/26 05:01:16;;;;;;;4.78;4.40;;;7.00;88.90;;;;;;649874;221;26773;-67
2022/03/26 05:03:44;;;;;;;5.12;4.70;;;6.90;89.20;;;;;;637779;225;26531;-66
2022/03/26 05:06:12;;;;;;;5.05;4.60;;;6.90;90.00;;;;;;649854;221;26578;-66
2022/03/26 05:08:39;;;;;;;5.30;4.90;;;6.90;89.60;;;;;;637791;225;26502;-66
2022/03/26 05:11:07;;;;;;;5.32;4.82;;;6.90;89.60;;;;;;651207;219;26801;-66
2022/03/26 05:13:34;;;;;;;5.30;4.82;;;6.90;89.90;;;;;;639083;225;26494;-66
2022/03/26 05:16:03;;;;;;;6.75;4.85;;;6.90;89.90;;;;;;650835;221;26803;-66
2022/03/26 05:18:28;;;;;;;8.98;7.07;;;6.90;90.00;;;;;;638676;225;26451;-67
2022/03/26 05:20:56;;;;;;;4.65;4.25;;;6.90;90.10;;;;;;650472;221;26568;-66
2022/03/26 05:23:24;;;;;;;5.22;4.37;;;6.90;90.20;;;;;;638339;225;26529;-66
2022/03/26 05:25:51;;;;;;;6.03;5.43;;;6.90;90.30;;;;;;650399;221;26814;-66
2022/03/26 05:28:19;;;;;;;5.40;4.90;;;7.00;90.20;;;;;;626331;229;26559;-66
2022/03/26 05:30:49;;;;;;;4.40;4.07;;;7.00;90.20;;;;;;650156;221;26505;-65
2022/03/26 05:33:15;;;;;;;6.25;4.22;;;7.00;90.20;;;;;;638067;225;26451;-66
2022/03/26 05:35:42;;;;;;;4.82;4.43;;;7.10;90.20;;;;;;650028;221;26838;-67
2022/03/26 05:38:09;;;;;;;4.85;4.28;;;7.10;90.10;;;;;;638056;225;26451;-65
2022/03/26 05:40:36;;;;;;;7.60;5.22;;;7.10;90.20;;;;;;650427;221;26835;-67
2022/03/26 05:43:03;;;;;;;4.60;4.20;;;7.10;90.10;;;;;;638439;225;26432;-66
2022/03/26 05:45:31;;;;;;;5.50;4.53;;;7.10;90.10;;;;;;650460;221;26813;-67
2022/03/26 05:48:00;;;;;;;5.62;5.10;;;7.10;90.10;;;;;;626287;230;26535;-65
2022/03/26 05:50:25;;;;;;;5.05;4.60;;;7.20;90.00;;;;;;650089;221;26482;-66
2022/03/26 05:52:53;;;;;;;9.40;7.47;;;7.30;89.60;;;;;;638131;225;26482;-67
2022/03/26 05:55:21;;;;;;;4.90;4.30;;;7.30;90.10;;;;;;650178;221;26854;-67
2022/03/26 05:57:48;;;;;;;4.80;4.40;;;7.20;89.70;;;;;;638124;225;26487;-65
2022/03/26 06:00:16;;;;;;;4.50;4.15;;;7.20;89.80;;;;;;650188;221;26483;-66
2022/03/26 06:02:43;;;;;;;4.82;4.32;;;7.20;89.70;;;;;;638086;225;26751;-67
2022/03/26 06:05:11;;;;;;;5.55;4.62;;;7.40;89.70;;;;;;649970;221;26571;-67
2022/03/26 06:07:39;;;;;;;4.85;4.45;;;7.40;89.30;;;;;;637727;225;26533;-67
2022/03/26 06:10:07;;;;;;;6.25;5.65;;;7.40;89.30;;;;;;649813;221;26559;-67
2022/03/26 06:12:34;;;;;;;4.78;4.37;;;7.50;89.20;;;;;;637680;225;26549;-66
2022/03/26 06:15:03;;;;;;;4.78;4.37;;;7.50;89.10;;;;;;649789;221;26552;-66
2022/03/26 06:17:30;;;;;;;7.97;6.80;;;7.60;89.10;;;;;;637694;225;26490;-66
2022/03/26 06:19:57;;;;;;;6.65;6.05;;;7.50;89.00;;;;;;649771;221;26787;-67
2022/03/26 06:22:25;;;;;;;5.30;4.80;;;7.60;89.10;;;;;;638893;223;26516;-66
2022/03/26 06:24:51;;;;;;;4.82;4.40;;;7.60;89.00;;;;;;651083;221;26815;-67
2022/03/26 06:27:18;;;;;;;5.85;5.35;;;7.70;89.10;;;;;;638812;225;26481;-66
2022/03/26 06:29:46;;;;;;;5.40;4.85;;;7.70;89.20;;;;;;650784;221;26522;-66
2022/03/26 06:32:13;;;;;;;6.53;5.90;;;7.70;89.00;;;;;;638389;225;26515;-67
2022/03/26 06:34:42;;;;;;;4.87;4.40;;;7.80;88.60;;;;;;650464;221;26846;-67
2022/03/26 06:37:08;;;;;;;5.78;5.28;;;7.90;88.50;;;;;;638255;225;26485;-67
2022/03/26 06:39:36;;;;;;;4.43;4.12;;;8.00;88.30;;;;;;650294;221;26532;-66
2022/03/26 06:42:04;;;;;;;7.10;5.80;;;8.00;88.30;;;;;;638034;225;26466;-66
2022/03/26 06:44:31;;;;;;;8.52;7.53;;;8.00;88.30;;;;;;650086;221;26510;-66
2022/03/26 06:46:58;;;;;;;10.43;8.05;;;8.10;87.90;;;;;;638033;225;26671;-67
2022/03/26 06:49:30;;;;;;;7.82;7.03;;;8.10;87.90;;;;;;650102;221;26518;-66
2022/03/26 06:51:53;;;;;;;9.10;8.05;;;8.20;87.70;;;;;;637614;225;26455;-66
2022/03/26 06:54:20;;;;;;;8.48;4.90;;;8.20;88.10;;;;;;650147;221;26511;-66
2022/03/26 06:56:47;;;;;;;4.68;4.28;;;8.30;87.40;;;;;;638115;225;26705;-66
2022/03/26 06:59:14;;;;;;;5.22;4.78;;;8.30;87.00;;;;;;649822;221;26528;-66
2022/03/26 07:01:44;;;;;;;5.35;4.85;;;8.40;86.90;;;;;;637715;225;26511;-66
2022/03/26 07:04:10;;;;;;;5.40;4.90;;;8.60;86.20;;;;;;649542;221;26502;-66
2022/03/26 07:06:37;;;;;;;5.47;5.00;;;8.60;86.20;;;;;;637655;225;26552;-67
2022/03/26 07:09:04;;;;;;;9.20;7.53;;;8.70;85.70;;;;;;649840;221;26554;-65
2022/03/26 07:11:31;;;;;;;4.80;4.40;;;8.80;85.10;;;;;;625790;230;27010;-67
2022/03/26 07:13:59;;;;;;;5.62;5.12;;;8.90;84.90;;;;;;649705;221;26527;-67
2022/03/26 07:16:26;;;;;;;5.22;4.35;;;9.00;84.70;;;;;;637734;225;26549;-67
2022/03/26 07:18:55;;;;;;;4.85;4.55;;;9.10;84.50;;;;;;649826;221;26834;-66
2022/03/26 07:21:21;;;;;;;4.80;4.40;;;9.10;84.00;;;;;;637729;225;26507;-66
2022/03/26 07:23:49;;;;;;;4.25;3.95;;;9.20;83.80;;;;;;649799;221;26883;-66
2022/03/26 07:26:16;;;;;;;8.90;7.65;;;9.20;83.50;;;;;;637699;225;27077;-67
2022/03/26 07:28:44;;;;;;;4.57;4.25;;;9.40;83.20;;;;;;649757;221;26510;-68
2022/03/26 07:31:12;;;;;;;4.40;4.05;;;9.40;83.10;;;;;;637693;225;26509;-67
2022/03/26 07:33:39;;;;;;;5.22;4.62;;;9.40;83.10;;;;;;650797;219;26554;-67
2022/03/26 07:36:07;;;;;;;4.97;4.07;;;9.50;83.00;;;;;;639105;225;26542;-68
2022/03/26 07:38:34;;;;;;;6.28;4.55;;;9.50;82.70;;;;;;648881;221;26792;-68
2022/03/26 07:41:01;;;;;;;8.57;5.15;;;9.50;82.70;;;;;;639028;225;26525;-67
2022/03/26 07:43:28;;;;;;;5.47;4.97;;;9.60;82.60;;;;;;638839;224;26731;-63
2022/03/26 07:45:56;;;;;;;7.45;5.22;;;9.70;82.50;;;;;;638647;225;26499;-64
2022/03/26 07:48:25;;;;;;;7.47;5.68;;;9.80;82.60;;;;;;638732;225;26506;-61
2022/03/26 07:50:52;;;;;;;15.52;5.95;;;9.80;82.60;;;;;;638530;225;26528;-63
2022/03/26 07:53:19;;;;;;;8.43;6.40;;;9.90;82.60;;;;;;640420;224;26574;-63
2022/03/26 07:55:46;;;;;;;7.22;6.53;;;10.00;81.10;;;;;;640376;224;27258;-64
2022/03/26 07:58:13;;;;;;;8.25;6.70;;;10.00;81.00;;;;;;638385;225;26573;-64
2022/03/26 08:00:40;;;;;;;8.85;7.12;;;10.10;81.10;;;;;;640356;224;27176;-63
2022/03/26 08:03:10;;;;;;;11.45;6.95;;;10.20;80.70;;;;;;640404;224;26543;-63
2022/03/26 08:05:36;;;;;;;7.62;6.65;;;10.40;80.60;;;;;;638249;225;26584;-63
2022/03/26 08:08:05;;;;;;;8.40;7.50;;;10.50;80.40;;;;;;638357;225;26547;-63
2022/03/26 08:10:32;;;;;;;8.02;6.75;;;10.40;80.30;;;;;;638147;225;26508;-64
2022/03/26 08:12:59;;;;;;;7.53;6.82;;;10.60;80.20;;;;;;638067;225;26733;-64
2022/03/26 08:15:26;;;;;;;9.20;6.78;;;10.70;80.30;;;;;;637942;225;26492;-61
2022/03/26 08:17:53;;;;;;;16.58;7.55;;;10.80;80.00;;;;;;638053;225;27064;-63
2022/03/26 08:20:21;;;;;;;10.95;7.55;;;10.90;79.70;;;;;;638000;225;26501;-64
2022/03/26 08:22:48;;;;;;;10.10;7.28;;;11.10;79.20;;;;;;640115;224;26737;-64
2022/03/26 08:26:19;;;;;;;8.07;7.15;;;11.30;78.80;;;;;;640058;225;26506;-65
2022/03/26 08:27:44;;;;;;;8.13;7.20;;;11.40;78.30;;;;;;636025;221;26541;-62
2022/03/26 08:30:14;;;;;;;73.80;20.45;;;11.40;78.10;;;;;;640103;224;26746;-61
2022/03/26 08:32:39;;;;;;;93.05;27.42;;;11.50;77.80;;;;;;640105;225;26503;-61
2022/03/26 08:35:06;;;;;;;220.82;43.87;;;11.60;77.50;;;;;;640066;225;26771;-61
2022/03/26 08:37:34;;;;;;;115.18;29.12;;;11.80;78.00;;;;;;640130;225;26539;-62
2022/03/26 08:40:03;;;;;;;104.57;28.20;;;12.00;77.00;;;;;;638060;225;26497;-62
2022/03/26 08:42:30;;;;;;;98.40;27.58;;;12.40;76.10;;;;;;640020;225;26498;-61
2022/03/26 08:44:58;;;;;;;67.12;22.92;;;12.50;75.50;;;;;;640705;222;26527;-62
2022/03/26 08:47:27;;;;;;;72.68;22.02;;;12.70;75.10;;;;;;639589;224;26550;-62
2022/03/26 08:49:54;;;;;;;76.50;23.15;;;12.80;74.90;;;;;;639103;224;26558;-62
2022/03/26 08:52:23;;;;;;;59.15;22.48;;;12.70;75.20;;;;;;638950;225;26562;-62
2022/03/26 08:54:50;;;;;;;51.33;20.10;;;12.80;74.90;;;;;;638759;224;26526;-63
2022/03/26 08:57:18;;;;;;;51.25;18.62;;;12.80;75.00;;;;;;640732;224;26545;-63
2022/03/26 08:59:46;;;;;;;33.28;15.02;;;12.90;74.90;;;;;;640791;224;26520;-64
2022/03/26 09:02:13;;;;;;;17.85;10.30;;;12.90;74.90;;;;;;640664;224;26495;-64
2022/03/26 09:04:40;;;;;;;17.30;10.00;;;12.90;74.80;;;;;;638317;225;26824;-64
2022/03/26 09:07:08;;;;;;;13.95;9.77;;;12.90;75.40;;;;;;640348;224;26620;-63
2022/03/26 09:09:35;;;;;;;17.05;9.18;;;12.80;75.50;;;;;;640303;224;26903;-64
2022/03/26 09:12:02;;;;;;;16.60;9.50;;;12.80;75.50;;;;;;638202;225;26583;-63
2022/03/26 09:14:30;;;;;;;17.67;9.10;;;13.00;76.00;;;;;;640192;224;26540;-64
2022/03/26 09:16:58;;;;;;;14.20;9.13;;;13.40;75.10;;;;;;640302;224;26560;-64
2022/03/26 09:19:26;;;;;;;15.55;9.38;;;13.80;74.40;;;;;;638254;225;26574;-63
2022/03/26 09:21:53;;;;;;;13.10;8.63;;;14.20;73.80;;;;;;640023;224;26486;-63
2022/03/26 09:24:23;;;;;;;13.43;8.75;;;14.00;74.00;;;;;;639890;224;26500;-63
2022/03/26 09:26:50;;;;;;;9.88;7.90;;;13.90;74.20;;;;;;638007;225;26556;-64
2022/03/26 09:29:18;;;;;;;10.05;7.93;;;14.00;74.00;;;;;;638053;225;26520;-64
2022/03/26 09:31:46;;;;;;;17.12;8.13;;;13.70;74.90;;;;;;638085;225;26496;-65
2022/03/26 09:34:14;;;;;;;11.15;7.95;;;13.60;75.80;;;;;;640092;224;26533;-65
2022/03/26 09:36:41;;;;;;;11.65;7.95;;;13.60;75.30;;;;;;640099;225;26531;-65
2022/03/26 09:39:09;;;;;;;11.63;7.60;;;13.30;76.50;;;;;;638122;225;26524;-65
2022/03/26 09:41:36;;;;;;;14.45;7.10;;;13.30;76.40;;;;;;640082;225;26552;-65
2022/03/26 09:44:03;;;;;;;11.10;7.65;;;13.30;76.90;;;;;;638053;225;26476;-64
2022/03/26 09:46:32;;;;;;;12.55;7.37;;;13.40;76.20;;;;;;638027;225;26516;-65
2022/03/26 09:48:59;;;;;;;9.90;7.20;;;13.30;76.60;;;;;;638040;225;26519;-64
2022/03/26 09:51:25;;;;;;;10.45;6.40;;;13.40;76.40;;;;;;638098;225;26514;-64
2022/03/26 09:53:53;;;;;;;9.63;7.95;;;13.40;76.60;;;;;;640078;225;26492;-64
2022/03/26 09:56:20;;;;;;;7.97;6.82;;;13.50;76.10;;;;;;638868;223;26499;-64
2022/03/26 09:58:47;;;;;;;7.85;6.72;;;13.40;76.50;;;;;;642102;223;26724;-64
2022/03/26 10:01:14;;;;;;;11.10;6.97;;;13.40;76.60;;;;;;639610;225;26466;-64
2022/03/26 10:03:43;;;;;;;7.97;7.18;;;13.20;76.90;;;;;;641457;224;26720;-64
2022/03/26 10:06:09;;;;;;;8.35;7.07;;;13.10;77.70;;;;;;637420;225;26493;-65
2022/03/26 10:08:37;;;;;;;9.52;6.95;;;13.20;77.70;;;;;;641121;224;26839;-65
2022/03/26 10:11:04;;;;;;;9.13;6.57;;;13.40;77.30;;;;;;639205;224;26722;-64
2022/03/26 10:13:36;;;;;;;8.57;6.82;;;13.50;76.80;;;;;;639116;224;26465;-64
2022/03/26 10:16:03;;;;;;;8.07;6.93;;;13.50;77.00;;;;;;638535;224;26579;-64
2022/03/26 10:18:34;;;;;;;8.10;7.30;;;13.50;76.80;;;;;;638436;225;26572;-64
2022/03/26 10:21:01;;;;;;;8.13;7.43;;;13.80;76.40;;;;;;640364;224;26729;-64
2022/03/26 10:23:28;;;;;;;7.85;7.05;;;13.60;76.60;;;;;;638400;225;26567;-64
2022/03/26 10:26:06;;;;;;;9.25;7.12;;;13.60;76.90;;;;;;640432;224;26821;-65
2022/03/26 10:28:34;;;;;;;8.45;6.50;;;13.80;77.10;;;;;;640437;224;26561;-65
2022/03/26 10:34:03;;;;;;;8.27;7.35;;;13.90;77.00;;;;;;638114;225;26517;-65
2022/03/26 10:36:30;;;;;;;7.95;6.85;;;13.60;78.30;;;;;;637845;225;26723;-65
2022/03/26 10:38:57;;;;;;;9.07;7.07;;;13.90;77.80;;;;;;640055;225;26492;-64
2022/03/26 10:41:24;;;;;;;6.85;6.25;;;14.30;76.70;;;;;;640166;225;26469;-65
2022/03/26 10:43:52;;;;;;;7.05;6.35;;;14.20;77.50;;;;;;638155;225;26496;-65
2022/03/26 10:46:23;;;;;;;7.78;6.62;;;13.90;77.80;;;;;;639013;225;26531;-65
2022/03/26 10:48:51;;;;;;;7.28;6.53;;;13.90;77.80;;;;;;640109;225;26917;-65
2022/03/26 10:51:18;;;;;;;9.27;6.78;;;13.80;78.50;;;;;;637227;225;26497;-65
2022/03/26 10:53:46;;;;;;;7.43;6.70;;;13.90;78.00;;;;;;640099;225;26727;-65
2022/03/26 10:56:13;;;;;;;8.13;6.70;;;14.20;77.40;;;;;;638080;224;26724;-65
2022/03/26 10:58:41;;;;;;;7.43;6.72;;;13.80;78.30;;;;;;640120;224;26507;-65
2022/03/26 11:01:09;;;;;;;8.32;7.47;;;13.70;78.70;;;;;;640516;225;26493;-65
2022/03/26 11:03:36;;;;;;;6.97;6.28;;;13.70;78.70;;;;;;640500;225;26684;-65
2022/03/26 11:06:03;;;;;;;8.20;6.43;;;13.50;79.50;;;;;;638423;225;26497;-63
2022/03/26 11:08:30;;;;;;;10.00;6.80;;;13.50;79.90;;;;;;641292;222;26727;-64
2022/03/26 11:10:59;;;;;;;7.68;6.80;;;13.70;79.40;;;;;;639898;224;26484;-64
2022/03/26 11:13:25;;;;;;;7.93;6.35;;;13.60;79.90;;;;;;639424;225;26759;-64
2022/03/26 11:15:52;;;;;;;6.97;6.37;;;13.80;79.50;;;;;;641430;224;26502;-65
2022/03/26 11:18:40;;;;;;;6.93;6.10;;;14.10;78.80;;;;;;641072;224;26718;-65
2022/03/26 11:21:08;;;;;;;6.50;5.95;;;14.10;78.80;;;;;;642698;223;26521;-65
2022/03/26 11:23:56;;;;;;;7.60;6.43;;;13.80;79.30;;;;;;638685;225;26472;-64
2022/03/26 11:26:39;;;;;;;7.97;6.22;;;13.90;79.50;;;;;;640443;224;26532;-65
2022/03/26 11:29:26;;;;;;;7.30;6.55;;;13.90;79.50;;;;;;620523;225;26525;-65
2022/03/26 11:31:54;;;;;;;7.10;6.40;;;14.20;78.30;;;;;;640080;223;26505;-65
2022/03/26 11:34:22;;;;;;;7.45;6.75;;;14.20;78.30;;;;;;640224;224;26552;-65
2022/03/26 11:36:50;;;;;;;7.72;7.00;;;14.90;76.60;;;;;;640407;224;26581;-65
2022/03/26 11:39:19;;;;;;;8.88;7.32;;;14.70;76.70;;;;;;638400;225;26560;-67
2022/03/26 11:41:47;;;;;;;11.40;7.70;;;14.70;76.70;;;;;;638347;225;26798;-64
2022/03/26 11:44:14;;;;;;;10.57;7.85;;;14.60;76.80;;;;;;638230;225;26586;-64
2022/03/26 11:51:52;;;;;;;12.30;7.65;;;14.50;77.20;;;;;;640047;225;26828;-64
2022/03/26 11:54:19;;;;;;;11.80;7.57;;;14.50;77.30;;;;;;641070;221;26882;-65
2022/03/26 11:56:47;;;;;;;12.82;8.38;;;14.20;78.50;;;;;;637433;224;26564;-64
2022/03/26 11:59:27;;;;;;;15.57;8.43;;;14.30;78.70;;;;;;636156;225;26556;-67
2022/03/26 12:01:53;;;;;;;11.75;8.05;;;14.10;79.00;;;;;;645868;221;26775;-65
2022/03/26 12:04:20;;;;;;;10.15;7.43;;;13.90;79.90;;;;;;631898;225;26426;-65
2022/03/26 12:06:50;;;;;;;9.73;7.95;;;13.90;79.70;;;;;;642363;221;26778;-65
2022/03/26 12:09:28;;;;;;;12.10;7.57;;;13.80;80.60;;;;;;629744;225;26792;-66
2022/03/26 12:12:12;;;;;;;14.77;7.82;;;13.80;80.20;;;;;;620089;230;26600;-64
2022/03/26 12:14:51;;;;;;;14.70;7.20;;;13.80;80.20;;;;;;631086;225;26542;-65
2022/03/26 12:17:18;;;;;;;8.82;7.55;;;13.80;80.50;;;;;;641972;221;26508;-66
2022/03/26 12:19:50;;;;;;;11.57;7.18;;;13.50;80.80;;;;;;643359;219;26566;-65
2022/03/26 12:22:28;;;;;;;12.07;7.00;;;13.50;80.80;;;;;;632743;225;26740;-64
2022/03/26 12:24:55;;;;;;;10.77;7.95;;;13.30;82.10;;;;;;632796;225;26581;-65
2022/03/26 12:27:22;;;;;;;14.35;8.27;;;13.40;81.70;;;;;;620892;228;26722;-64
2022/03/26 12:29:49;;;;;;;10.32;8.35;;;13.30;82.10;;;;;;619525;229;26525;-65
2022/03/26 12:32:17;;;;;;;11.00;8.23;;;13.30;82.30;;;;;;643686;221;26500;-65
2022/03/26 12:34:50;;;;;;;19.12;8.88;;;13.30;82.30;;;;;;635099;225;26527;-64
2022/03/26 12:37:17;;;;;;;13.88;7.57;;;13.40;82.30;;;;;;644285;221;26477;-65
2022/03/26 12:39:45;;;;;;;10.80;8.13;;;13.10;83.10;;;;;;641376;221;26524;-65
2022/03/26 12:42:12;;;;;;;15.23;8.80;;;13.00;84.00;;;;;;632626;225;26475;-65
2022/03/26 12:44:40;;;;;;;14.27;7.95;;;13.00;84.10;;;;;;643984;221;26586;-65
2022/03/26 12:47:08;;;;;;;12.20;9.05;;;13.00;84.30;;;;;;645887;223;26586;-66
2022/03/26 12:49:37;;;;;;;11.43;8.57;;;12.90;84.70;;;;;;645811;223;26577;-66
2022/03/26 12:52:06;;;;;;;11.12;7.97;;;13.20;85.20;;;;;;645505;222;26600;-66
2022/03/26 12:54:32;;;;;;;11.43;8.55;;;13.20;84.50;;;;;;645423;222;26555;-66
2022/03/26 12:57:01;;;;;;;14.25;8.65;;;13.20;84.50;;;;;;645252;223;26739;-65
2022/03/26 12:59:29;;;;;;;12.55;9.25;;;13.10;84.80;;;;;;645130;222;26508;-65
2022/03/26 13:01:58;;;;;;;13.62;9.23;;;13.00;84.60;;;;;;644152;221;27147;-64